Time;durP1;ratioP1;P1;durP2;ratioP2;P2;SDS_P1;SDS_P2;PMS_P1;PMS_P2;Temp;Humidity;BMP_temperature;BMP_pressure;BME280_temperature;BME280_humidity;BME280_pressure;Samples;Min_cycle;Max_cycle;Signal;HPM_P1;HPM_P2
2022/12/29 12:34:45;;;;;;;27.45;5.53;;;9.80;99.90;;;;;;5801678;24;20081;31
2022/12/29 12:53:21;;;;;;;26.33;4.93;;;10.00;99.90;;;;;;5274643;24;20075;-83
2022/12/29 12:55:52;;;;;;;17.27;4.60;;;10.10;99.90;;;;;;4758652;30;20139;-83
2022/12/29 12:58:18;;;;;;;22.88;4.97;;;10.10;99.90;;;;;;4757003;30;20079;-82
2022/12/29 13:01:03;;;;;;;24.23;5.13;;;10.00;99.90;;;;;;4742304;30;20062;-84
2022/12/29 13:03:32;;;;;;;21.30;5.18;;;10.00;99.90;;;;;;4759143;30;20131;-87
2022/12/29 13:06:21;;;;;;;18.48;4.28;;;9.90;99.90;;;;;;4776251;30;20134;-82
2022/12/29 13:09:12;;;;;;;30.13;4.93;;;9.80;99.90;;;;;;4743749;30;20075;-87
2022/12/29 13:11:52;;;;;;;22.13;4.32;;;9.90;99.90;;;;;;4753922;30;20059;-80
2022/12/29 13:14:41;;;;;;;18.23;4.50;;;9.80;99.90;;;;;;4753063;30;20405;-81
2022/12/29 13:17:22;;;;;;;23.08;4.15;;;9.80;99.90;;;;;;4764778;30;20083;-81
2022/12/29 13:20:02;;;;;;;17.48;4.10;;;9.70;99.90;;;;;;4734526;30;20410;-80
2022/12/29 13:22:32;;;;;;;17.02;3.50;;;9.70;99.90;;;;;;4735615;30;20050;-79
2022/12/29 13:25:25;;;;;;;18.42;4.07;;;9.70;99.90;;;;;;4721489;30;20048;-79
2022/12/29 13:28:00;;;;;;;19.58;3.95;;;9.70;99.90;;;;;;4757452;30;20267;-79
2022/12/29 13:30:32;;;;;;;19.50;4.32;;;9.60;99.90;;;;;;4732253;30;20388;-78
2022/12/29 13:33:06;;;;;;;16.25;4.50;;;9.60;99.90;;;;;;4717379;30;20055;-80
2022/12/29 13:35:32;;;;;;;17.25;3.92;;;9.60;99.90;;;;;;4749239;30;20130;-78
2022/12/29 13:38:33;;;;;;;18.02;3.75;;;9.50;99.90;;;;;;4757399;30;20101;-79
2022/12/29 13:41:11;;;;;;;16.25;4.00;;;9.50;99.90;;;;;;4679917;30;20049;-80
2022/12/29 13:43:42;;;;;;;13.82;3.83;;;9.40;99.90;;;;;;4695241;30;20089;-80
2022/12/29 13:46:28;;;;;;;18.80;3.83;;;9.40;99.90;;;;;;4679594;30;20061;-80
2022/12/29 13:48:58;;;;;;;20.65;4.78;;;9.30;99.90;;;;;;4694167;30;20049;-79
2022/12/29 13:51:25;;;;;;;22.40;4.25;;;9.50;99.90;;;;;;4694390;30;20151;-79
2022/12/29 13:54:02;;;;;;;21.00;4.40;;;9.30;99.90;;;;;;4693232;30;20062;-79
2022/12/29 13:57:01;;;;;;;16.67;3.63;;;9.30;99.90;;;;;;4678357;30;20069;-83
2022/12/29 13:59:49;;;;;;;14.30;3.65;;;9.40;99.90;;;;;;4693437;30;20063;-81
2022/12/29 14:02:25;;;;;;;13.00;3.47;;;9.40;99.90;;;;;;4679355;30;20057;-81
2022/12/29 14:04:58;;;;;;;15.95;3.45;;;9.30;99.90;;;;;;4677788;30;20495;-81
2022/12/29 14:07:25;;;;;;;20.60;4.13;;;9.30;99.90;;;;;;4681057;30;20136;-80
2022/12/29 14:09:53;;;;;;;18.48;4.50;;;9.60;99.90;;;;;;4692216;30;20047;-80
2022/12/29 14:12:30;;;;;;;15.48;3.60;;;9.30;99.90;;;;;;4678592;30;20549;-81
2022/12/29 14:15:10;;;;;;;23.40;4.57;;;9.20;99.90;;;;;;4681010;30;20054;-85
2022/12/29 14:17:38;;;;;;;13.85;3.30;;;9.20;99.90;;;;;;4733174;30;20083;-82
2022/12/29 14:20:16;;;;;;;19.02;4.10;;;9.20;99.90;;;;;;4749155;30;20088;-81
2022/12/29 14:22:57;;;;;;;19.13;3.55;;;9.00;99.90;;;;;;4749698;30;20047;-80
2022/12/29 14:25:53;;;;;;;18.88;4.18;;;9.00;99.90;;;;;;4748345;30;20105;-80
2022/12/29 14:28:28;;;;;;;17.92;4.18;;;9.00;99.90;;;;;;4737824;30;20086;-80
2022/12/29 14:31:05;;;;;;;16.45;3.90;;;8.90;99.90;;;;;;4733964;30;20118;-80
2022/12/29 14:33:32;;;;;;;17.52;4.68;;;8.90;99.90;;;;;;4747392;30;20491;-79
2022/12/29 14:36:19;;;;;;;18.85;4.78;;;8.90;99.90;;;;;;4750253;30;20566;-80
2022/12/29 14:38:46;;;;;;;23.77;4.32;;;8.90;99.90;;;;;;4748366;30;20040;-80
2022/12/29 14:41:18;;;;;;;20.80;4.10;;;8.80;99.90;;;;;;4764915;30;20115;-81
2022/12/29 14:43:54;;;;;;;19.55;5.75;;;8.80;99.90;;;;;;4749022;30;20075;-81
2022/12/29 14:46:20;;;;;;;19.38;4.53;;;8.90;99.90;;;;;;4747796;30;20067;-81
2022/12/29 14:48:46;;;;;;;18.80;3.35;;;8.90;99.90;;;;;;4749501;30;20490;-81
2022/12/29 14:51:21;;;;;;;24.58;4.93;;;8.80;99.90;;;;;;4755833;30;20511;-81
2022/12/29 14:53:51;;;;;;;18.77;4.75;;;8.90;99.90;;;;;;4742012;30;20059;-81
2022/12/29 14:56:20;;;;;;;19.20;4.03;;;8.80;99.90;;;;;;4749731;30;20403;-81
2022/12/29 14:58:53;;;;;;;18.83;3.85;;;8.80;99.90;;;;;;4750132;30;20372;-81
2022/12/29 15:01:22;;;;;;;18.90;4.35;;;8.80;99.90;;;;;;4733898;30;20052;-81
2022/12/29 15:03:50;;;;;;;25.52;4.70;;;8.60;99.90;;;;;;4753983;30;20052;-81
2022/12/29 15:06:18;;;;;;;21.85;3.42;;;8.80;99.90;;;;;;4754527;30;20051;-81
2022/12/29 15:09:00;;;;;;;16.85;3.50;;;8.50;99.90;;;;;;4750998;30;20051;-82
2022/12/29 15:11:35;;;;;;;22.08;4.80;;;8.50;99.90;;;;;;4768944;30;20086;-80
2022/12/29 15:14:01;;;;;;;15.25;3.78;;;8.40;99.90;;;;;;4739094;30;20059;-81
2022/12/29 15:16:32;;;;;;;22.25;4.35;;;8.40;99.90;;;;;;4750380;30;20052;-82
2022/12/29 15:18:58;;;;;;;19.27;4.47;;;8.30;99.90;;;;;;4734606;30;20055;-81
2022/12/29 15:21:35;;;;;;;18.58;4.00;;;8.20;99.90;;;;;;4751841;30;20058;-80
2022/12/29 15:24:03;;;;;;;16.10;3.80;;;8.30;99.90;;;;;;4768002;30;20058;-80
2022/12/29 15:26:45;;;;;;;17.77;3.47;;;8.20;99.90;;;;;;4737449;30;20056;-81
2022/12/29 15:29:37;;;;;;;14.43;3.80;;;8.20;99.90;;;;;;4733104;30;20110;-80
2022/12/29 15:32:15;;;;;;;13.07;3.40;;;8.10;99.90;;;;;;4758680;30;20039;-81
2022/12/29 15:34:41;;;;;;;20.73;3.78;;;8.10;99.90;;;;;;4737166;30;20403;-80
2022/12/29 15:37:08;;;;;;;16.35;3.72;;;8.10;99.90;;;;;;4734424;30;20364;-80
2022/12/29 15:39:34;;;;;;;17.63;4.13;;;8.00;99.90;;;;;;4750000;30;20051;-81
2022/12/29 15:42:09;;;;;;;15.95;3.42;;;8.00;99.90;;;;;;4734574;30;20507;-81
2022/12/29 15:44:40;;;;;;;14.93;3.55;;;8.00;99.90;;;;;;4749335;30;20490;-81
2022/12/29 15:47:15;;;;;;;13.40;3.60;;;8.00;99.90;;;;;;4728589;30;20039;-79
2022/12/29 15:49:43;;;;;;;15.85;3.22;;;7.90;99.90;;;;;;4744563;30;20097;-79
2022/12/29 15:52:09;;;;;;;15.68;3.80;;;7.90;99.90;;;;;;4749946;30;20404;-79
2022/12/29 15:54:36;;;;;;;21.92;4.07;;;7.90;99.90;;;;;;4757618;30;20360;-82
2022/12/29 15:57:03;;;;;;;14.45;3.88;;;7.90;99.90;;;;;;4751133;30;20044;-81
2022/12/29 15:59:31;;;;;;;18.52;3.55;;;7.80;99.90;;;;;;4750835;30;20063;-81
2022/12/29 16:01:59;;;;;;;17.20;3.72;;;7.80;99.90;;;;;;4736199;30;20142;-82
2022/12/29 16:04:30;;;;;;;18.73;3.75;;;7.80;99.90;;;;;;4747384;30;20052;-82
2022/12/29 16:07:05;;;;;;;18.73;3.55;;;7.80;99.90;;;;;;4752829;30;20112;-82
2022/12/29 16:09:36;;;;;;;18.42;4.38;;;7.70;99.90;;;;;;4768487;30;20052;-82
2022/12/29 16:12:08;;;;;;;17.23;3.67;;;7.80;99.90;;;;;;4769462;30;20828;-82
2022/12/29 16:14:44;;;;;;;16.08;4.32;;;7.80;99.90;;;;;;4752293;30;20059;-82
2022/12/29 16:17:15;;;;;;;16.38;3.90;;;7.80;99.90;;;;;;4752238;30;20090;-82
2022/12/29 16:19:47;;;;;;;21.95;4.35;;;7.80;99.90;;;;;;4752376;30;20096;-83
2022/12/29 16:22:27;;;;;;;20.20;4.53;;;8.00;99.90;;;;;;4752952;30;20195;-82
2022/12/29 16:25:01;;;;;;;16.27;3.90;;;7.90;99.90;;;;;;4771385;30;20047;-82
2022/12/29 16:27:29;;;;;;;22.40;9.00;;;7.80;99.90;;;;;;4758149;30;20048;-82
2022/12/29 16:29:55;;;;;;;18.27;4.68;;;7.80;99.90;;;;;;4750765;30;20083;-82
2022/12/29 16:32:29;;;;;;;22.00;4.28;;;7.90;99.90;;;;;;4729114;30;20097;-83
2022/12/29 16:35:18;;;;;;;16.75;3.72;;;7.90;99.90;;;;;;4744639;30;20059;-82
2022/12/29 16:37:44;;;;;;;18.00;4.05;;;7.90;99.90;;;;;;4734583;30;20135;-81
2022/12/29 16:40:29;;;;;;;18.75;4.90;;;8.10;99.90;;;;;;4734181;30;20123;-82
2022/12/29 16:42:57;;;;;;;17.95;6.10;;;8.10;99.90;;;;;;4733628;30;20055;-82
2022/12/29 16:45:22;;;;;;;28.58;15.15;;;8.10;99.90;;;;;;4743595;30;20078;-82
2022/12/29 16:48:05;;;;;;;23.23;8.68;;;8.10;99.90;;;;;;4737971;30;20048;-82
2022/12/29 16:50:32;;;;;;;16.75;5.18;;;8.10;99.90;;;;;;4750232;30;20071;-82
2022/12/29 16:52:58;;;;;;;13.18;4.40;;;8.20;99.90;;;;;;4733756;30;20056;-82
2022/12/29 16:55:24;;;;;;;15.43;5.00;;;8.20;99.90;;;;;;4734093;30;20048;-81
2022/12/29 16:57:53;;;;;;;18.35;3.20;;;8.20;99.90;;;;;;4749635;30;20546;-81
2022/12/29 17:00:37;;;;;;;10.43;4.13;;;8.10;99.90;;;;;;4749597;30;20040;-81
2022/12/29 17:03:03;;;;;;;;;;;8.10;99.90;;;;;;4759988;30;20039;-81
2022/12/29 17:05:28;;;;;;;11.13;3.85;;;8.00;99.90;;;;;;4736105;30;19922;-81
2022/12/29 17:07:57;;;;;;;12.95;3.25;;;7.90;99.90;;;;;;4733925;30;20082;-81
2022/12/29 17:11:53;;;;;;;11.30;4.00;;;7.90;99.90;;;;;;4749352;30;20051;-82
2022/12/29 17:13:08;;;;;;;11.90;3.60;;;7.90;99.90;;;;;;4733393;30;20049;-81
2022/12/29 17:15:34;;;;;;;11.80;3.63;;;7.80;99.90;;;;;;4749644;30;20049;-80
2022/12/29 17:18:00;;;;;;;10.27;3.30;;;7.80;99.90;;;;;;4744038;30;20089;-81
2022/12/29 17:20:29;;;;;;;8.38;2.75;;;7.80;99.90;;;;;;4755866;30;20079;-80
2022/12/29 17:22:55;;;;;;;9.65;2.85;;;7.80;99.90;;;;;;4767509;30;20040;-80
2022/12/29 17:25:37;;;;;;;9.25;2.13;;;7.70;99.90;;;;;;4766291;30;20454;-79
2022/12/29 17:28:16;;;;;;;6.35;2.45;;;7.70;99.90;;;;;;4767521;30;20143;-81
2022/12/29 17:30:42;;;;;;;10.02;2.72;;;7.70;99.90;;;;;;4767368;30;20119;-82
2022/12/29 17:33:16;;;;;;;8.77;2.47;;;7.70;99.90;;;;;;4743717;30;20445;-80
2022/12/29 17:35:41;;;;;;;10.18;2.72;;;7.70;99.90;;;;;;4765553;30;20062;-81
2022/12/29 17:38:26;;;;;;;10.23;2.45;;;7.80;99.90;;;;;;4749846;30;20051;-80
2022/12/29 17:40:52;;;;;;;11.88;3.10;;;7.60;99.90;;;;;;4750674;30;20082;-80
2022/12/29 17:43:18;;;;;;;11.18;2.47;;;7.60;99.90;;;;;;4751339;30;20071;-81
2022/12/29 17:45:47;;;;;;;13.85;3.35;;;7.60;99.90;;;;;;4751379;30;20055;-81
2022/12/29 17:48:14;;;;;;;15.38;3.78;;;7.50;99.90;;;;;;4735826;30;20054;-80
2022/12/29 17:50:41;;;;;;;17.80;6.32;;;7.50;99.90;;;;;;4749637;30;20048;-81
2022/12/29 17:53:12;;;;;;;17.85;6.40;;;7.90;99.90;;;;;;4747520;30;20066;-80
2022/12/29 17:55:38;;;;;;;14.35;3.50;;;7.50;99.90;;;;;;4762710;30;20052;-80
2022/12/29 17:58:30;;;;;;;17.20;4.22;;;7.40;99.90;;;;;;4751361;30;20101;-80
2022/12/29 18:00:58;;;;;;;15.13;4.00;;;7.40;99.90;;;;;;4745333;30;20033;-80
2022/12/29 18:03:26;;;;;;;15.02;4.03;;;7.40;99.90;;;;;;4749046;30;20488;-80
2022/12/29 18:05:51;;;;;;;15.13;4.53;;;7.30;99.90;;;;;;4748934;30;20044;-80
2022/12/29 18:08:17;;;;;;;15.43;4.47;;;7.30;99.90;;;;;;4748034;30;20596;-80
2022/12/29 18:10:43;;;;;;;16.67;4.03;;;7.30;99.90;;;;;;4756433;30;20101;-80
2022/12/29 18:13:28;;;;;;;21.55;5.95;;;7.30;99.90;;;;;;4733124;30;20511;-80
2022/12/29 18:15:55;;;;;;;15.60;5.75;;;7.20;99.90;;;;;;4718493;30;20123;-80
2022/12/29 18:18:23;;;;;;;19.70;5.13;;;7.20;99.90;;;;;;4748555;30;20044;-79
2022/12/29 18:20:58;;;;;;;17.48;5.18;;;7.20;99.90;;;;;;4742571;30;20065;-80
2022/12/29 18:23:26;;;;;;;19.13;5.60;;;7.10;99.90;;;;;;4749951;30;20527;-82
2022/12/29 18:25:54;;;;;;;16.13;5.13;;;7.10;99.90;;;;;;4750166;30;20046;-80
2022/12/29 18:28:20;;;;;;;16.58;5.10;;;7.30;99.90;;;;;;4749921;30;20746;-80
2022/12/29 18:30:46;;;;;;;18.15;6.03;;;7.10;99.90;;;;;;4718413;30;20051;-81
2022/12/29 18:33:17;;;;;;;47.50;24.38;;;7.10;99.90;;;;;;4749012;30;20491;-81
2022/12/29 18:35:52;;;;;;;17.67;5.47;;;7.10;99.90;;;;;;4732873;30;20067;-81
2022/12/29 18:38:18;;;;;;;14.75;5.88;;;7.20;99.90;;;;;;4738696;30;20059;-82
2022/12/29 18:40:44;;;;;;;16.23;4.78;;;7.20;99.90;;;;;;4748452;30;20047;-81
2022/12/29 18:43:13;;;;;;;14.30;4.70;;;7.10;99.90;;;;;;4763745;30;20472;-82
2022/12/29 18:45:38;;;;;;;20.73;5.05;;;7.10;99.90;;;;;;4762198;30;20387;-81
2022/12/29 18:48:04;;;;;;;20.00;4.90;;;7.10;99.90;;;;;;4750370;30;20054;-81
2022/12/29 18:50:30;;;;;;;17.48;4.75;;;7.10;99.90;;;;;;4765969;30;20052;-81
2022/12/29 18:52:56;;;;;;;21.77;6.32;;;7.10;99.90;;;;;;4766034;30;20044;-81
2022/12/29 18:55:23;;;;;;;22.92;5.25;;;7.10;99.90;;;;;;4745845;30;20460;-83
2022/12/29 18:57:50;;;;;;;17.08;5.25;;;7.60;99.90;;;;;;4759446;30;20456;-81
2022/12/29 19:00:17;;;;;;;22.55;5.20;;;7.10;99.90;;;;;;4749017;30;20044;-82
2022/12/29 19:02:43;;;;;;;22.17;5.95;;;7.20;99.90;;;;;;4749613;30;20047;-82
2022/12/29 19:05:20;;;;;;;20.02;5.07;;;7.20;99.90;;;;;;4765371;30;20054;-83
2022/12/29 19:07:46;;;;;;;21.75;5.72;;;7.30;99.90;;;;;;4765109;30;20101;-83
2022/12/29 19:10:12;;;;;;;19.55;5.45;;;7.20;99.90;;;;;;4746796;30;20044;-81
2022/12/29 19:12:37;;;;;;;19.23;5.30;;;7.20;99.90;;;;;;4761452;30;20483;-83
2022/12/29 19:15:06;;;;;;;27.25;9.43;;;7.20;99.90;;;;;;4765216;30;20075;-83
2022/12/29 19:17:35;;;;;;;33.83;10.73;;;7.20;99.90;;;;;;4734691;30;20047;-83
2022/12/29 19:20:02;;;;;;;24.33;7.00;;;7.30;99.90;;;;;;4747898;30;20126;-82
2022/12/29 19:22:28;;;;;;;24.45;5.68;;;7.30;99.90;;;;;;4748725;30;20101;-83
2022/12/29 19:24:53;;;;;;;26.88;6.25;;;7.30;99.90;;;;;;4733392;30;20063;-82
2022/12/29 19:27:19;;;;;;;33.80;10.23;;;7.60;99.90;;;;;;4755340;30;20419;-83
2022/12/29 19:29:45;;;;;;;28.75;6.60;;;7.40;99.90;;;;;;4734569;30;20058;-83
2022/12/29 19:32:11;;;;;;;30.30;6.50;;;7.40;99.90;;;;;;4757071;30;20119;-82
2022/12/29 19:34:36;;;;;;;25.27;5.55;;;7.50;99.90;;;;;;4732814;30;20456;-82
2022/12/29 19:37:02;;;;;;;23.38;5.53;;;7.40;99.90;;;;;;4734864;30;20163;-82
2022/12/29 19:39:28;;;;;;;22.80;5.32;;;7.40;99.90;;;;;;4752112;30;20127;-82
2022/12/29 19:41:54;;;;;;;21.08;5.57;;;7.40;99.90;;;;;;4744235;30;20092;-82
2022/12/29 19:44:20;;;;;;;27.08;5.75;;;7.70;99.90;;;;;;4735699;30;20067;-82
2022/12/29 19:46:46;;;;;;;29.52;6.50;;;7.40;99.90;;;;;;4751181;30;20123;-81
2022/12/29 19:49:11;;;;;;;22.92;4.88;;;7.30;99.90;;;;;;4736234;30;20047;-82
2022/12/29 19:51:37;;;;;;;29.42;9.20;;;7.30;99.90;;;;;;4735743;30;20445;-82
2022/12/29 19:54:03;;;;;;;20.45;4.63;;;7.30;99.90;;;;;;4737089;30;20060;-80
2022/12/29 19:56:28;;;;;;;19.52;4.88;;;7.30;99.90;;;;;;4728552;30;20530;-80
2022/12/29 19:58:56;;;;;;;22.35;5.18;;;7.30;99.90;;;;;;4730970;30;20048;-81
2022/12/29 20:01:22;;;;;;;21.75;5.43;;;7.30;99.90;;;;;;4750010;30;20503;-82
2022/12/29 20:03:48;;;;;;;20.50;4.82;;;7.30;99.90;;;;;;4734427;30;20126;-82
2022/12/29 20:06:15;;;;;;;21.42;5.68;;;7.20;99.90;;;;;;4734892;30;20104;-82
2022/12/29 20:08:41;;;;;;;22.40;5.38;;;7.20;99.90;;;;;;4733355;30;20107;-81
2022/12/29 20:11:08;;;;;;;27.73;5.60;;;7.20;99.90;;;;;;4726371;30;20060;-82
2022/12/29 20:13:34;;;;;;;29.35;6.35;;;7.10;99.90;;;;;;4719968;30;20052;-82
2022/12/29 20:16:06;;;;;;;22.42;5.90;;;7.10;99.90;;;;;;4749961;30;20517;-81
2022/12/29 20:18:34;;;;;;;25.50;5.72;;;7.10;99.90;;;;;;4734022;30;20052;-81
2022/12/29 20:21:08;;;;;;;31.52;6.20;;;7.00;99.90;;;;;;4761402;30;20557;-82
2022/12/29 20:23:37;;;;;;;23.23;5.70;;;7.00;99.90;;;;;;4745648;30;20044;-81
2022/12/29 20:26:03;;;;;;;26.95;6.22;;;6.90;99.90;;;;;;4722165;30;20036;-82
2022/12/29 20:28:29;;;;;;;22.25;5.30;;;6.90;99.90;;;;;;4719851;30;20074;-81
2022/12/29 20:30:55;;;;;;;25.63;5.68;;;6.90;99.90;;;;;;4734440;30;20047;-80
2022/12/29 20:33:21;;;;;;;20.08;5.28;;;6.90;99.90;;;;;;4755860;30;20131;-81
2022/12/29 20:35:48;;;;;;;20.90;5.72;;;6.90;99.90;;;;;;4752555;30;20051;-81
2022/12/29 20:38:13;;;;;;;20.85;6.15;;;6.90;99.90;;;;;;4736490;30;20056;-80
2022/12/29 20:40:39;;;;;;;31.02;6.40;;;6.90;99.90;;;;;;4765561;30;20190;-82
2022/12/29 20:43:04;;;;;;;26.50;6.90;;;6.90;99.90;;;;;;4731678;30;20454;-82
2022/12/29 20:45:30;;;;;;;25.55;8.70;;;6.90;99.90;;;;;;4719070;30;20048;-82
2022/12/29 20:47:56;;;;;;;29.85;7.60;;;6.90;99.90;;;;;;4717089;30;20075;-82
2022/12/29 20:50:21;;;;;;;26.50;7.40;;;6.90;99.90;;;;;;4750101;30;20398;-82
2022/12/29 20:52:47;;;;;;;25.48;7.00;;;6.90;99.90;;;;;;4733515;30;20120;-81
2022/12/29 20:55:13;;;;;;;23.60;7.20;;;6.80;99.90;;;;;;4740770;30;20126;-81
2022/12/29 20:57:38;;;;;;;27.90;6.55;;;6.80;99.90;;;;;;4733584;30;20428;-81
2022/12/29 21:00:05;;;;;;;29.80;7.13;;;6.90;99.90;;;;;;4732730;30;20044;-82
2022/12/29 21:02:31;;;;;;;21.92;6.55;;;6.80;99.90;;;;;;4747793;30;20463;-81
2022/12/29 21:04:56;;;;;;;27.50;5.97;;;6.80;99.90;;;;;;4755308;30;20138;-81
2022/12/29 21:07:22;;;;;;;31.20;6.50;;;7.10;99.90;;;;;;4732789;30;20072;-82
2022/12/29 21:09:47;;;;;;;21.77;6.32;;;6.80;99.90;;;;;;4744529;30;20047;-82
2022/12/29 21:12:13;;;;;;;24.00;5.68;;;6.80;99.90;;;;;;4743709;30;20046;-85
2022/12/29 21:14:39;;;;;;;25.95;6.20;;;6.80;99.90;;;;;;4760826;30;20047;-85
2022/12/29 21:17:05;;;;;;;29.25;5.30;;;6.90;99.90;;;;;;4752027;30;20044;-82
2022/12/29 21:19:31;;;;;;;24.95;5.22;;;6.70;99.90;;;;;;4734006;30;20048;-83
2022/12/29 21:21:56;;;;;;;31.35;6.55;;;6.70;99.90;;;;;;4736281;30;20048;-81
2022/12/29 21:24:22;;;;;;;25.73;5.43;;;6.70;99.90;;;;;;4741258;30;20040;-81
2022/12/29 21:26:48;;;;;;;24.98;5.65;;;6.70;99.90;;;;;;4756097;30;20510;-82
2022/12/29 21:29:13;;;;;;;36.25;5.80;;;6.60;99.90;;;;;;4776704;30;20047;-81
2022/12/29 21:31:39;;;;;;;24.13;5.28;;;6.60;99.90;;;;;;4774923;30;20097;-81
2022/12/29 21:34:06;;;;;;;25.42;4.78;;;6.60;99.90;;;;;;4736404;30;20048;-80
2022/12/29 21:36:32;;;;;;;29.40;6.03;;;6.60;99.90;;;;;;4731317;30;20500;-80
2022/12/29 21:38:58;;;;;;;29.20;6.05;;;6.60;99.90;;;;;;4748792;30;20511;-80
2022/12/29 21:41:24;;;;;;;26.35;5.55;;;6.60;99.90;;;;;;4720064;30;20040;-81
2022/12/29 21:46:38;;;;;;;28.15;6.22;;;6.60;99.90;;;;;;4759354;30;20104;-81
2022/12/29 21:49:04;;;;;;;33.35;6.03;;;6.70;99.90;;;;;;4723970;30;20052;-80
2022/12/29 21:56:59;;;;;;;30.92;9.50;;;6.80;99.90;;;;;;4734745;30;20044;-82
2022/12/29 22:13:35;;;;;;;22.75;5.80;;;6.80;99.90;;;;;;4768053;30;20063;-82
2022/12/29 22:16:05;;;;;;;24.42;5.40;;;6.80;99.90;;;;;;4751973;30;20048;-82
2022/12/29 22:18:30;;;;;;;28.80;5.40;;;6.70;99.90;;;;;;4767784;30;20051;-82
2022/12/29 22:20:56;;;;;;;31.33;6.00;;;6.70;99.90;;;;;;4752293;30;20056;-82
2022/12/29 22:23:22;;;;;;;30.45;6.80;;;6.70;99.90;;;;;;4751989;30;20430;-83
2022/12/29 22:25:48;;;;;;;27.02;5.65;;;6.70;99.90;;;;;;4752202;30;20075;-82
2022/12/29 22:28:15;;;;;;;31.35;6.25;;;7.00;99.90;;;;;;4751683;30;20079;-82
2022/12/29 22:30:41;;;;;;;32.47;5.88;;;6.70;99.90;;;;;;4767661;30;20499;-81
2022/12/29 22:33:07;;;;;;;24.25;6.10;;;6.60;99.90;;;;;;4747714;30;20044;-82
2022/12/29 22:35:32;;;;;;;21.88;5.90;;;6.60;99.90;;;;;;4761736;30;20043;-82
2022/12/29 22:37:58;;;;;;;29.67;5.80;;;6.60;99.90;;;;;;4751187;30;20043;-82
2022/12/29 22:40:24;;;;;;;27.85;6.28;;;6.60;99.90;;;;;;4751784;30;20052;-82
2022/12/29 22:42:50;;;;;;;23.35;5.20;;;6.50;99.90;;;;;;4751659;30;20136;-81
2022/12/29 22:45:15;;;;;;;26.50;5.43;;;6.80;99.90;;;;;;4766886;30;20047;-81
2022/12/29 22:47:41;;;;;;;26.23;5.55;;;6.50;99.90;;;;;;4751015;30;20069;-81
2022/12/29 22:50:07;;;;;;;30.23;5.95;;;6.50;99.90;;;;;;4767521;30;20048;-81
2022/12/29 22:52:33;;;;;;;39.63;6.50;;;6.50;99.90;;;;;;4764652;30;20060;-80
2022/12/29 22:54:58;;;;;;;29.90;6.78;;;6.40;99.90;;;;;;4751237;30;20073;-80
2022/12/29 22:57:24;;;;;;;30.23;6.20;;;6.40;99.90;;;;;;4767395;30;20527;-80
2022/12/29 22:59:49;;;;;;;30.35;6.68;;;6.40;99.90;;;;;;4756778;30;20098;-80
2022/12/29 23:02:15;;;;;;;30.35;7.43;;;6.60;99.90;;;;;;4753768;30;20046;-82
2022/12/29 23:04:40;;;;;;;37.40;8.10;;;6.40;99.90;;;;;;4758989;30;20048;-81
2022/12/29 23:07:06;;;;;;;31.25;7.30;;;6.40;99.90;;;;;;4747480;30;20458;-83
2022/12/29 23:09:32;;;;;;;34.40;6.50;;;6.40;99.90;;;;;;4744067;30;20576;-82
2022/12/29 23:11:57;;;;;;;29.95;5.95;;;6.40;99.90;;;;;;4724622;30;20052;-82
2022/12/29 23:14:23;;;;;;;27.63;6.47;;;6.50;99.90;;;;;;4753282;30;20048;-81
2022/12/29 23:16:49;;;;;;;29.90;6.00;;;6.40;99.90;;;;;;4753983;30;20108;-81
2022/12/29 23:19:15;;;;;;;32.50;6.35;;;6.40;99.90;;;;;;4753480;30;20059;-82
2022/12/29 23:21:40;;;;;;;29.88;7.07;;;6.40;99.90;;;;;;4769828;30;20071;-81
2022/12/29 23:24:11;;;;;;;23.88;6.45;;;6.30;99.90;;;;;;4744640;30;20471;-82
2022/12/29 23:26:45;;;;;;;27.63;6.40;;;6.30;99.90;;;;;;4736542;30;20048;-82
2022/12/29 23:29:14;;;;;;;36.22;7.85;;;6.30;99.90;;;;;;4736356;30;20055;-82
2022/12/29 23:31:40;;;;;;;33.30;6.95;;;6.20;99.90;;;;;;4752998;30;20514;-82
2022/12/29 23:34:07;;;;;;;30.38;7.45;;;6.20;99.90;;;;;;4753562;30;20441;-82
2022/12/29 23:36:33;;;;;;;32.45;6.53;;;6.10;99.90;;;;;;4754569;30;20048;-82
2022/12/29 23:38:59;;;;;;;32.17;6.57;;;6.10;99.90;;;;;;4769800;30;20092;-82
2022/12/29 23:41:25;;;;;;;35.50;6.32;;;6.10;99.90;;;;;;4754846;30;20036;-83
2022/12/29 23:43:51;;;;;;;34.60;6.88;;;6.30;99.90;;;;;;4753735;30;20058;-82
2022/12/29 23:46:20;;;;;;;31.63;6.72;;;6.10;99.90;;;;;;4754241;30;20056;-82
2022/12/29 23:48:46;;;;;;;33.40;6.93;;;6.00;99.90;;;;;;4755734;30;20052;-82
2022/12/29 23:51:12;;;;;;;31.75;6.55;;;5.90;99.90;;;;;;4764535;30;20119;-81
2022/12/29 23:53:40;;;;;;;30.83;6.80;;;5.90;99.90;;;;;;4753138;30;20211;-82
2022/12/29 23:56:10;;;;;;;35.92;7.07;;;5.90;99.90;;;;;;4758344;30;20063;-81
2022/12/29 23:58:36;;;;;;;36.58;6.43;;;5.90;99.90;;;;;;4735738;30;20055;-82
